Richton, Mississippi
Current Conditions -  °F | °C
As of 8:20 AM on Sunday 21 Dec 2014 (Local Time) from KHBG Reporting Station
Haze Haze  
Wind Chill: 41°   Ceiling: 300
Heat Index: 45°   Visibility: 1.5mi
Dew Point: 44°   Wind: 7mph
Humidity: 97%   Direction: 50°NE
Pressure: 30.14"   Gusts: NA
Location:  31.35°N, 88.94°W
Report Text: KHBG 211420Z AUTO 05006KT 1 1/2SM BR OVC003 07/07 A3014 RMK AO2 T00720067
Loading
Personal Weather Stations






























Interactive Weather Map New forecast layout! Learn more

10-Day Weather Forecast

Advertisements
Track Severe Weather on mobile